Time;durP1;ratioP1;P1;durP2;ratioP2;P2;SDS_P1;SDS_P2;PMS_P1;PMS_P2;Temp;Humidity;BMP_temperature;BMP_pressure;BME280_temperature;BME280_humidity;BME280_pressure;Samples;Min_cycle;Max_cycle;Signal;HPM_P1;HPM_P2
2023/10/09 00:11:17;;;;;;;15.48;8.80;;;18.40;79.50;;;;;;4581680;19;20015;-69
2023/10/09 00:12:54;;;;;;;13.52;8.27;;;18.40;79.60;;;;;;4594111;19;20369;-69
2023/10/09 00:14:33;;;;;;;13.43;7.93;;;18.40;79.50;;;;;;4593954;19;20062;-69
2023/10/09 00:16:15;;;;;;;13.77;8.63;;;18.30;79.50;;;;;;4591437;19;20029;-69
2023/10/09 00:17:51;;;;;;;12.15;8.35;;;18.40;79.30;;;;;;4592670;19;20014;-69
2023/10/09 00:19:32;;;;;;;11.90;8.35;;;18.30;79.20;;;;;;4592777;19;20070;-69
2023/10/09 00:21:13;;;;;;;14.13;9.27;;;18.30;79.30;;;;;;4592798;19;20010;-69
2023/10/09 00:22:48;;;;;;;11.68;8.73;;;18.30;79.40;;;;;;4593854;19;20006;-69
2023/10/09 00:24:23;;;;;;;13.65;8.43;;;18.40;79.70;;;;;;4593601;19;20421;-69
2023/10/09 00:26:12;;;;;;;12.77;8.38;;;18.30;79.70;;;;;;4592502;19;20013;-69
2023/10/09 00:27:48;;;;;;;13.73;8.52;;;18.40;79.80;;;;;;4592412;19;20112;-69
2023/10/09 00:29:23;;;;;;;13.55;8.85;;;18.30;79.90;;;;;;4593309;19;20322;-69
2023/10/09 00:30:57;;;;;;;13.50;8.52;;;18.30;79.70;;;;;;4592911;19;20302;-69
2023/10/09 00:32:33;;;;;;;12.50;7.72;;;18.30;79.50;;;;;;4593668;19;20425;-69
2023/10/09 00:34:15;;;;;;;12.52;8.48;;;18.40;79.60;;;;;;4593421;19;20295;-69
2023/10/09 00:35:54;;;;;;;12.63;7.47;;;18.40;79.60;;;;;;4592716;19;20298;-69
2023/10/09 00:37:33;;;;;;;10.85;7.57;;;18.30;79.50;;;;;;4593799;19;20007;-69
2023/10/09 00:39:20;;;;;;;16.65;11.43;;;18.30;80.00;;;;;;4593531;19;20007;-69
2023/10/09 00:41:09;;;;;;;16.83;10.45;;;18.30;80.00;;;;;;4591072;19;20016;-69
2023/10/09 00:42:44;;;;;;;17.00;10.68;;;18.30;80.00;;;;;;4593303;19;20069;-69
2023/10/09 00:44:19;;;;;;;14.50;9.00;;;18.40;80.10;;;;;;4593345;19;19998;-69
2023/10/09 00:45:53;;;;;;;13.65;8.45;;;18.30;80.10;;;;;;4593593;19;20005;-69
2023/10/09 00:47:34;;;;;;;12.07;8.00;;;18.40;80.50;;;;;;4591851;19;20011;-69
2023/10/09 00:49:10;;;;;;;12.88;8.88;;;18.40;80.30;;;;;;4592986;19;20006;-69
2023/10/09 00:50:52;;;;;;;13.15;8.63;;;18.40;80.30;;;;;;4591386;19;20331;-69
2023/10/09 00:53:01;;;;;;;12.68;8.63;;;18.30;80.10;;;;;;4591947;19;20006;-69
2023/10/09 00:54:35;;;;;;;13.35;8.20;;;18.30;80.10;;;;;;4591937;19;20013;-69
2023/10/09 00:56:58;;;;;;;12.00;8.18;;;18.30;80.30;;;;;;4590972;19;20457;-69
2023/10/09 00:58:12;;;;;;;11.65;7.00;;;18.40;80.10;;;;;;4592291;19;20033;-69
2023/10/09 00:59:59;;;;;;;9.18;6.85;;;18.30;80.20;;;;;;4591772;19;20007;-69
2023/10/09 01:01:41;;;;;;;12.82;7.97;;;18.40;80.30;;;;;;4591822;19;20007;-69
2023/10/09 01:03:21;;;;;;;11.40;6.97;;;18.30;80.20;;;;;;4593289;19;20007;-69
2023/10/09 01:05:11;;;;;;;11.18;7.28;;;18.40;80.30;;;;;;4592985;19;20052;-69
2023/10/09 01:06:47;;;;;;;10.73;6.97;;;18.30;80.20;;;;;;4591911;19;20007;-69
2023/10/09 01:08:43;;;;;;;11.73;6.95;;;18.30;80.00;;;;;;4591600;19;20021;-69
2023/10/09 01:10:20;;;;;;;12.55;7.72;;;18.30;80.10;;;;;;4590857;19;20383;-69
2023/10/09 01:12:42;;;;;;;11.05;6.03;;;18.30;80.10;;;;;;4592571;19;20310;-69
2023/10/09 01:13:52;;;;;;;8.70;5.53;;;18.30;80.20;;;;;;4592036;19;20492;-69
2023/10/09 01:15:43;;;;;;;8.77;6.07;;;18.30;80.70;;;;;;4592174;19;20016;-69
2023/10/09 01:17:29;;;;;;;9.68;6.15;;;18.30;80.30;;;;;;4591557;19;19998;-69
2023/10/09 01:19:12;;;;;;;7.80;4.78;;;18.30;80.30;;;;;;4591354;19;20007;-69
2023/10/09 01:20:46;;;;;;;8.15;5.75;;;18.30;80.10;;;;;;4592130;19;20019;-69
2023/10/09 01:22:21;;;;;;;9.35;5.22;;;18.30;80.10;;;;;;4592538;19;20002;-69
2023/10/09 01:25:49;;;;;;;9.25;5.88;;;18.30;80.40;;;;;;4592379;19;20038;-69
2023/10/09 01:27:32;;;;;;;9.90;6.55;;;18.30;80.50;;;;;;4592861;19;20432;-69
2023/10/09 01:29:14;;;;;;;8.70;5.57;;;18.30;80.50;;;;;;4592518;19;20029;-69
2023/10/09 01:30:51;;;;;;;9.15;5.82;;;18.40;80.70;;;;;;4592021;19;20065;-69
2023/10/09 01:32:26;;;;;;;8.13;5.43;;;18.30;80.50;;;;;;4590931;19;20014;-69
2023/10/09 01:34:03;;;;;;;10.80;6.28;;;18.30;80.70;;;;;;4592379;19;20006;-69
2023/10/09 01:35:46;;;;;;;8.88;5.55;;;18.30;80.60;;;;;;4591769;19;20003;-69
2023/10/09 01:37:24;;;;;;;10.13;6.38;;;18.30;81.10;;;;;;4592402;19;20006;-69
2023/10/09 01:41:08;;;;;;;9.75;6.13;;;18.30;80.60;;;;;;4590215;19;20022;-69
2023/10/09 01:42:48;;;;;;;9.30;5.50;;;18.30;81.30;;;;;;4592312;19;20039;-69
2023/10/09 01:44:24;;;;;;;8.60;5.70;;;18.30;80.80;;;;;;4590991;19;20010;-69
2023/10/09 01:46:01;;;;;;;8.88;5.22;;;18.30;80.80;;;;;;4591137;19;20005;-69
2023/10/09 01:47:37;;;;;;;7.85;5.13;;;18.30;80.60;;;;;;4591912;19;20007;-69
2023/10/09 01:49:29;;;;;;;7.70;5.03;;;18.30;80.60;;;;;;4592190;19;20006;-69
2023/10/09 01:51:05;;;;;;;7.25;4.57;;;18.30;80.50;;;;;;4591347;19;20011;-69
2023/10/09 01:52:39;;;;;;;8.20;5.13;;;18.30;80.60;;;;;;4593891;19;20038;-69
2023/10/09 01:54:33;;;;;;;7.32;4.93;;;18.30;80.70;;;;;;4600895;19;20006;-69
2023/10/09 01:56:15;;;;;;;7.25;4.95;;;18.30;80.90;;;;;;4599939;19;20007;-69
2023/10/09 01:57:50;;;;;;;8.20;4.75;;;18.30;81.00;;;;;;4600951;19;20055;-69
2023/10/09 01:59:27;;;;;;;9.18;4.47;;;18.30;80.80;;;;;;4600248;19;20006;-69
2023/10/09 02:01:04;;;;;;;7.60;4.78;;;18.30;80.90;;;;;;4599151;19;20013;-69
2023/10/09 02:02:38;;;;;;;7.07;4.45;;;18.30;81.00;;;;;;4600088;19;20037;-69
2023/10/09 02:04:14;;;;;;;8.90;5.07;;;18.30;80.90;;;;;;4600414;19;20081;-69
2023/10/09 02:05:49;;;;;;;8.00;5.18;;;18.30;80.60;;;;;;4598564;19;20006;-69
2023/10/09 02:07:28;;;;;;;9.55;5.70;;;18.30;80.70;;;;;;4599936;19;20467;-69
2023/10/09 02:09:06;;;;;;;8.73;4.80;;;18.30;80.80;;;;;;4599940;19;20006;-69
2023/10/09 02:10:40;;;;;;;8.07;5.40;;;18.30;80.90;;;;;;4599418;19;20018;-69
2023/10/09 02:12:14;;;;;;;8.48;6.35;;;18.30;80.80;;;;;;4599973;19;20421;-69
2023/10/09 02:13:53;;;;;;;8.65;4.70;;;18.30;81.00;;;;;;4599833;19;20070;-69
2023/10/09 02:17:29;;;;;;;8.48;5.13;;;18.40;81.30;;;;;;4598459;19;20086;-69
2023/10/09 02:19:08;;;;;;;8.50;4.45;;;18.30;81.10;;;;;;4599794;19;20006;-69
2023/10/09 02:20:44;;;;;;;10.05;4.97;;;18.40;81.10;;;;;;4599009;19;20027;-69
2023/10/09 02:22:18;;;;;;;8.85;4.82;;;18.30;80.90;;;;;;4599659;19;20006;-69
2023/10/09 02:23:57;;;;;;;7.22;4.57;;;18.30;80.70;;;;;;4599618;19;20015;-69
2023/10/09 02:25:37;;;;;;;8.57;5.32;;;18.30;80.90;;;;;;4599004;19;20014;-69
2023/10/09 02:27:12;;;;;;;6.95;4.53;;;18.30;81.00;;;;;;4599308;19;20316;-69
2023/10/09 02:29:35;;;;;;;7.97;4.97;;;18.30;81.00;;;;;;4599888;19;20267;-69
2023/10/09 02:30:41;;;;;;;9.25;5.22;;;18.30;81.10;;;;;;4598007;19;20043;-69
2023/10/09 02:32:25;;;;;;;7.72;4.40;;;18.30;81.30;;;;;;4599710;19;20002;-69
2023/10/09 02:34:06;;;;;;;10.45;5.97;;;18.30;81.30;;;;;;4599540;19;20006;-69
2023/10/09 02:35:42;;;;;;;7.35;5.13;;;18.30;81.50;;;;;;4598615;19;20022;-69
2023/10/09 02:37:23;;;;;;;9.00;5.53;;;18.30;81.30;;;;;;4599677;19;20006;-69
2023/10/09 02:38:58;;;;;;;9.50;5.28;;;18.30;81.40;;;;;;4598327;19;20421;-69
2023/10/09 02:40:39;;;;;;;10.70;5.47;;;18.30;81.90;;;;;;4598592;19;20007;-69
2023/10/09 02:43:55;;;;;;;8.73;5.53;;;18.30;81.30;;;;;;4599273;19;20080;-69
2023/10/09 02:45:34;;;;;;;9.70;5.25;;;18.30;81.30;;;;;;4599250;19;20007;-69
2023/10/09 02:47:17;;;;;;;7.97;4.65;;;18.30;81.20;;;;;;4599308;19;20050;-69
2023/10/09 02:48:53;;;;;;;8.13;4.55;;;18.30;81.20;;;;;;4599228;19;20007;-69
2023/10/09 02:50:32;;;;;;;7.97;4.40;;;18.30;81.30;;;;;;4598998;19;20339;-69
2023/10/09 02:52:17;;;;;;;8.68;4.75;;;18.30;81.50;;;;;;4599193;19;20075;-69
2023/10/09 02:53:54;;;;;;;7.43;4.82;;;18.30;81.60;;;;;;4598049;19;20490;-69
2023/10/09 02:55:28;;;;;;;7.68;4.35;;;18.30;81.70;;;;;;4598364;19;20081;-69
2023/10/09 02:57:07;;;;;;;8.88;4.82;;;18.30;81.50;;;;;;4599092;19;20083;-69
2023/10/09 02:58:42;;;;;;;7.93;5.28;;;18.30;81.60;;;;;;4599107;19;20086;-69
2023/10/09 03:00:28;;;;;;;7.82;4.40;;;18.30;81.80;;;;;;4599332;19;19998;-69
2023/10/09 03:02:02;;;;;;;9.85;4.97;;;18.30;81.80;;;;;;4597925;19;20006;-69
2023/10/09 03:03:38;;;;;;;7.93;4.93;;;18.30;82.00;;;;;;4597926;19;20066;-69
2023/10/09 03:05:12;;;;;;;8.45;4.60;;;18.30;82.10;;;;;;4594367;19;20002;-69
2023/10/09 03:06:57;;;;;;;9.25;5.30;;;18.30;82.00;;;;;;4594548;19;19995;-69
2023/10/09 03:08:32;;;;;;;9.25;4.95;;;18.30;81.80;;;;;;4594908;19;20014;-69
2023/10/09 03:10:11;;;;;;;8.77;5.10;;;18.30;82.10;;;;;;4593330;19;20039;-69
2023/10/09 03:11:47;;;;;;;8.35;5.07;;;18.30;82.10;;;;;;4593212;19;20365;-69
2023/10/09 03:13:23;;;;;;;8.88;5.65;;;18.30;82.40;;;;;;4594269;19;20433;-69
2023/10/09 03:14:58;;;;;;;8.70;5.13;;;18.30;82.40;;;;;;4594449;19;20005;-69
2023/10/09 03:16:34;;;;;;;8.25;5.20;;;18.30;82.40;;;;;;4594689;19;20445;-69
2023/10/09 03:18:09;;;;;;;9.88;5.88;;;18.30;82.40;;;;;;4594399;19;20006;-69
2023/10/09 03:19:45;;;;;;;10.93;7.25;;;18.30;82.50;;;;;;4594323;19;19999;-69
2023/10/09 03:21:22;;;;;;;10.45;6.72;;;18.30;82.30;;;;;;4593048;19;20027;-69
2023/10/09 03:22:57;;;;;;;10.88;6.63;;;18.30;82.40;;;;;;4594905;19;20013;-69
2023/10/09 03:24:33;;;;;;;11.07;7.53;;;18.30;82.40;;;;;;4594443;19;20532;-69
2023/10/09 03:26:08;;;;;;;12.80;7.63;;;18.30;82.40;;;;;;4594443;19;20006;-69
2023/10/09 03:27:47;;;;;;;11.63;7.82;;;18.30;82.50;;;;;;4594819;19;20003;-69
2023/10/09 03:29:20;;;;;;;10.35;7.07;;;18.30;82.40;;;;;;4594181;19;20010;-69
2023/10/09 03:30:54;;;;;;;10.32;6.82;;;18.30;82.40;;;;;;4593160;19;20003;-69
2023/10/09 03:32:29;;;;;;;10.63;6.88;;;18.30;82.50;;;;;;4594309;19;20031;-69
2023/10/09 03:34:04;;;;;;;11.20;6.95;;;18.30;82.60;;;;;;4594024;19;20010;-69
2023/10/09 03:35:39;;;;;;;9.20;5.85;;;18.30;82.60;;;;;;4591888;19;20044;-69
2023/10/09 03:37:33;;;;;;;10.02;6.20;;;18.30;82.50;;;;;;4593698;19;20460;-69
2023/10/09 03:41:00;;;;;;;10.27;5.82;;;18.40;82.90;;;;;;4593468;19;20102;-69
2023/10/09 03:42:42;;;;;;;10.27;6.45;;;18.40;82.70;;;;;;4593025;19;20028;-69
2023/10/09 03:44:18;;;;;;;9.45;5.80;;;18.50;82.30;;;;;;4593921;19;20069;-69
2023/10/09 03:45:56;;;;;;;10.00;6.10;;;18.60;82.20;;;;;;4594053;19;20013;-69
2023/10/09 03:47:32;;;;;;;10.00;5.43;;;18.70;82.10;;;;;;4593951;19;20066;-69
2023/10/09 03:49:10;;;;;;;10.82;5.43;;;18.80;81.70;;;;;;4593823;19;20306;-69
2023/10/09 03:50:46;;;;;;;10.10;5.60;;;18.90;81.50;;;;;;4591640;19;20298;-68
2023/10/09 03:52:25;;;;;;;8.88;5.47;;;19.00;81.60;;;;;;4593789;19;20010;-69
2023/10/09 03:54:03;;;;;;;10.93;5.75;;;19.00;81.60;;;;;;4593683;19;20069;-69
2023/10/09 03:55:40;;;;;;;8.00;5.25;;;18.70;81.10;;;;;;4592891;19;20014;-68
2023/10/09 03:57:19;;;;;;;8.55;5.45;;;16.00;85.10;;;;;;4592255;19;20013;-68
2023/10/09 03:58:54;;;;;;;7.80;5.13;;;14.60;89.00;;;;;;4593598;19;20110;-68
2023/10/09 04:00:29;;;;;;;7.75;4.88;;;13.80;90.50;;;;;;4593530;19;20007;-68
2023/10/09 04:02:07;;;;;;;8.67;5.37;;;13.40;91.20;;;;;;4594333;19;20007;-68
2023/10/09 04:03:41;;;;;;;7.77;5.63;;;13.10;91.90;;;;;;4594385;19;20073;-71
2023/10/09 04:05:16;;;;;;;7.23;5.40;;;13.00;91.90;;;;;;4594250;19;20022;-71
2023/10/09 04:06:52;;;;;;;7.57;5.20;;;12.80;92.20;;;;;;4594209;19;20006;-68
2023/10/09 04:08:29;;;;;;;9.33;6.23;;;12.70;92.00;;;;;;4593042;19;19999;-69
2023/10/09 04:10:32;;;;;;;9.50;5.93;;;12.60;92.10;;;;;;4592877;19;20007;-68
2023/10/09 04:13:49;;;;;;;8.40;6.03;;;12.50;92.70;;;;;;4594329;19;20431;-67
2023/10/09 04:15:23;;;;;;;9.80;5.63;;;12.40;93.10;;;;;;4593433;19;20453;-65
2023/10/09 04:17:32;;;;;;;9.97;5.83;;;12.40;93.50;;;;;;4593106;19;20431;-72
2023/10/09 04:19:08;;;;;;;9.25;5.20;;;13.20;93.30;;;;;;4594028;19;20014;-69
2023/10/09 04:22:27;;;;;;;9.20;5.30;;;15.00;91.90;;;;;;4593965;19;20007;-69
2023/10/09 04:24:41;;;;;;;8.20;5.10;;;15.50;91.10;;;;;;4593814;19;20006;-68
2023/10/09 04:26:14;;;;;;;8.48;5.22;;;16.00;90.60;;;;;;4593402;19;20010;-67
2023/10/09 04:27:52;;;;;;;8.45;6.03;;;16.50;90.20;;;;;;4592653;19;20010;-67
2023/10/09 04:29:26;;;;;;;9.07;5.85;;;16.70;89.90;;;;;;4593461;19;20021;-68
2023/10/09 04:31:06;;;;;;;7.78;5.47;;;17.00;89.00;;;;;;4592773;19;20010;-67
2023/10/09 04:32:44;;;;;;;10.05;5.57;;;17.20;88.60;;;;;;4593625;19;20029;-68
2023/10/09 04:34:22;;;;;;;9.30;5.25;;;17.40;88.20;;;;;;4593593;19;20002;-68
2023/10/09 04:38:05;;;;;;;7.65;4.60;;;17.90;87.40;;;;;;4593746;19;20006;-68
2023/10/09 04:40:10;;;;;;;8.40;4.80;;;18.10;86.80;;;;;;4592331;19;20422;-68
2023/10/09 04:43:21;;;;;;;7.63;5.10;;;18.50;86.20;;;;;;4593491;19;19998;-66
2023/10/09 04:46:43;;;;;;;7.80;4.80;;;18.80;85.40;;;;;;4593471;19;20298;-68
2023/10/09 04:48:32;;;;;;;9.15;4.60;;;19.00;85.40;;;;;;4593286;19;20006;-67
2023/10/09 04:50:14;;;;;;;7.05;4.40;;;19.10;85.10;;;;;;4593077;19;20003;-68
2023/10/09 04:52:04;;;;;;;8.52;4.38;;;19.20;84.70;;;;;;4593674;19;19998;-69
2023/10/09 04:53:49;;;;;;;8.75;4.40;;;19.30;84.40;;;;;;4593527;19;20437;-69
2023/10/09 04:55:27;;;;;;;8.63;4.95;;;19.40;84.20;;;;;;4592767;19;20078;-68
2023/10/09 04:57:02;;;;;;;9.85;5.30;;;19.50;84.10;;;;;;4593396;19;20006;-69
2023/10/09 04:58:39;;;;;;;9.13;4.93;;;19.50;83.80;;;;;;4593086;19;20429;-68
2023/10/09 05:02:04;;;;;;;9.77;5.65;;;19.60;83.80;;;;;;4592990;19;20007;-68
2023/10/09 05:05:47;;;;;;;10.35;5.72;;;19.70;83.40;;;;;;4592867;19;19998;-68
2023/10/09 05:09:09;;;;;;;7.65;5.60;;;19.80;83.30;;;;;;4592888;19;20017;-68
2023/10/09 05:12:56;;;;;;;8.65;5.88;;;14.80;90.20;;;;;;4590266;19;20006;-67
2023/10/09 05:14:39;;;;;;;8.57;5.57;;;13.80;91.70;;;;;;4590349;19;20013;-67
2023/10/09 05:16:25;;;;;;;8.75;5.68;;;14.30;92.90;;;;;;4589556;19;20007;-67
2023/10/09 05:18:09;;;;;;;9.57;5.45;;;15.60;91.80;;;;;;4590679;19;20010;-67
2023/10/09 05:20:55;;;;;;;11.30;6.45;;;16.50;90.70;;;;;;4590643;19;20007;-67
2023/10/09 05:21:52;;;;;;;11.02;6.63;;;17.30;89.80;;;;;;4590670;19;20438;-67
2023/10/09 05:23:27;;;;;;;12.25;6.82;;;17.90;88.10;;;;;;4590326;19;20030;-67
2023/10/09 05:25:04;;;;;;;11.88;6.82;;;18.10;87.30;;;;;;4590551;19;20010;-67
2023/10/09 05:27:17;;;;;;;12.10;6.47;;;18.40;86.90;;;;;;4589974;19;20006;-67
2023/10/09 05:28:58;;;;;;;12.68;7.57;;;18.60;86.20;;;;;;4587816;19;20463;-68
2023/10/09 05:30:33;;;;;;;12.30;6.90;;;18.80;85.80;;;;;;4589184;19;20013;-67
2023/10/09 05:32:27;;;;;;;11.25;6.47;;;18.90;85.70;;;;;;4590013;19;20007;-68
2023/10/09 05:34:06;;;;;;;9.05;5.57;;;19.00;85.30;;;;;;4589821;19;20487;-67
2023/10/09 05:35:40;;;;;;;8.70;6.10;;;19.10;85.20;;;;;;4589026;19;20287;-67
2023/10/09 05:37:34;;;;;;;10.20;5.28;;;19.20;85.50;;;;;;4590181;19;19998;-67
2023/10/09 05:41:45;;;;;;;10.25;5.93;;;19.30;85.30;;;;;;4588612;19;20547;-74
2023/10/09 05:47:29;;;;;;;11.50;6.43;;;19.40;84.80;;;;;;4589618;19;20008;-72
2023/10/09 05:52:32;;;;;;;9.52;5.63;;;19.40;84.50;;;;;;4589655;19;20025;-73
2023/10/09 05:54:11;;;;;;;9.63;5.07;;;19.40;84.40;;;;;;4589360;19;20389;-73
2023/10/09 06:04:12;;;;;;;9.13;4.70;;;19.30;84.60;;;;;;4589462;19;20011;-72
2023/10/09 06:05:40;;;;;;;8.45;4.90;;;19.30;84.60;;;;;;4588842;19;20014;-73
2023/10/09 06:07:12;;;;;;;7.15;5.07;;;19.20;84.80;;;;;;4589236;19;20014;-72
2023/10/09 06:10:37;;;;;;;7.60;5.40;;;19.20;85.10;;;;;;4588839;19;20009;-72
2023/10/09 06:16:09;;;;;;;8.40;5.00;;;19.20;85.30;;;;;;4588506;19;20007;-73
2023/10/09 06:17:50;;;;;;;6.90;4.22;;;19.20;85.20;;;;;;4589202;19;20015;-72
2023/10/09 06:22:56;;;;;;;8.85;5.15;;;19.10;85.60;;;;;;4590479;19;20437;-73
2023/10/09 06:24:42;;;;;;;9.77;5.38;;;19.10;85.80;;;;;;4591558;19;20002;-73
2023/10/09 06:26:26;;;;;;;9.90;5.60;;;19.10;85.80;;;;;;4591422;19;20441;-72
2023/10/09 06:28:01;;;;;;;7.53;4.50;;;19.10;85.80;;;;;;4591762;19;20433;-73
2023/10/09 06:33:36;;;;;;;10.80;6.75;;;19.10;86.10;;;;;;4588857;19;20070;-72
2023/10/09 06:35:21;;;;;;;8.02;5.03;;;19.10;86.10;;;;;;4588743;19;20032;-69
2023/10/09 06:36:55;;;;;;;9.05;4.97;;;19.00;86.10;;;;;;4589430;19;20014;-69
2023/10/09 06:42:30;;;;;;;6.65;4.15;;;19.00;86.50;;;;;;4593674;19;20013;-69
2023/10/09 06:44:06;;;;;;;7.80;4.22;;;19.00;87.00;;;;;;4593843;19;20327;-69
2023/10/09 06:45:45;;;;;;;6.30;4.18;;;19.10;87.20;;;;;;4593318;19;20017;-69
2023/10/09 06:47:23;;;;;;;6.50;4.25;;;19.10;87.40;;;;;;4593840;19;20042;-69
2023/10/09 06:48:59;;;;;;;6.70;4.25;;;19.10;87.50;;;;;;4593545;19;20006;-69
2023/10/09 06:52:57;;;;;;;8.23;5.30;;;19.10;87.50;;;;;;4593694;19;20006;-69
2023/10/09 06:54:25;;;;;;;7.32;4.45;;;19.10;87.50;;;;;;4593521;19;20078;-69
2023/10/09 06:56:05;;;;;;;7.65;5.45;;;19.20;87.90;;;;;;4592348;19;20014;-69
2023/10/09 06:57:48;;;;;;;9.73;5.90;;;19.20;88.00;;;;;;4593482;19;20015;-69
2023/10/09 06:59:24;;;;;;;9.43;6.75;;;19.20;88.00;;;;;;4593611;19;20007;-69
2023/10/09 07:02:45;;;;;;;9.73;6.88;;;19.40;88.90;;;;;;4593194;19;20003;-69
2023/10/09 07:08:28;;;;;;;10.00;7.00;;;19.50;88.20;;;;;;4593395;19;20330;-69
2023/10/09 07:13:27;;;;;;;9.60;5.65;;;19.60;88.10;;;;;;4593367;19;20010;-69
2023/10/09 07:16:39;;;;;;;9.10;5.53;;;19.60;87.80;;;;;;4594821;19;20002;-69
2023/10/09 07:18:19;;;;;;;10.00;5.82;;;19.60;87.50;;;;;;4594687;19;20358;-69
2023/10/09 07:21:28;;;;;;;9.35;6.80;;;19.60;87.60;;;;;;4592188;19;20013;-69
2023/10/09 07:23:22;;;;;;;10.90;8.23;;;19.60;87.50;;;;;;4594056;19;20003;-69
2023/10/09 07:24:58;;;;;;;10.75;7.38;;;19.50;87.60;;;;;;4594880;19;20062;-69
2023/10/09 07:26:47;;;;;;;11.32;7.13;;;19.50;87.70;;;;;;4593135;19;20318;-70
2023/10/09 07:32:12;;;;;;;12.68;7.55;;;19.50;88.00;;;;;;4591881;19;20438;-69
2023/10/09 07:33:58;;;;;;;10.57;7.53;;;19.50;88.30;;;;;;4591973;19;20422;-70
2023/10/09 07:37:19;;;;;;;13.85;9.13;;;19.50;88.30;;;;;;4591597;19;20482;-70
2023/10/09 07:38:55;;;;;;;12.18;8.60;;;19.40;88.20;;;;;;4591926;19;20006;-70
2023/10/09 07:40:31;;;;;;;12.77;8.27;;;19.50;88.10;;;;;;4592222;19;20010;-69
2023/10/09 07:42:26;;;;;;;11.90;8.38;;;19.40;88.40;;;;;;4592690;19;20009;-69
2023/10/09 07:44:18;;;;;;;11.57;7.45;;;19.40;88.40;;;;;;4592423;19;20067;-70
2023/10/09 07:46:29;;;;;;;11.27;7.32;;;19.40;88.20;;;;;;4592317;19;20002;-70
2023/10/09 07:49:37;;;;;;;11.23;8.13;;;19.40;88.40;;;;;;4592537;19;20096;-69
2023/10/09 07:51:16;;;;;;;13.82;6.70;;;19.40;88.10;;;;;;4589354;19;20349;-69
2023/10/09 07:52:51;;;;;;;10.88;7.20;;;19.30;88.00;;;;;;4592152;19;20019;-70
2023/10/09 07:54:35;;;;;;;10.10;6.53;;;19.40;88.30;;;;;;4592340;19;20007;-70
2023/10/09 07:56:13;;;;;;;8.38;5.57;;;19.30;88.30;;;;;;4591181;19;20006;-69
2023/10/09 07:57:52;;;;;;;11.27;6.30;;;19.30;88.20;;;;;;4592241;19;20006;-70
2023/10/09 07:59:31;;;;;;;11.32;6.90;;;19.30;88.40;;;;;;4592170;19;20007;-70
2023/10/09 08:01:15;;;;;;;9.65;6.78;;;19.30;88.60;;;;;;4590978;19;20034;-70
2023/10/09 08:03:00;;;;;;;9.88;6.50;;;19.30;88.00;;;;;;4591954;19;20023;-70
2023/10/09 08:04:48;;;;;;;12.15;7.60;;;19.30;87.80;;;;;;4592014;19;20070;-76
2023/10/09 08:06:44;;;;;;;11.20;7.45;;;19.30;88.00;;;;;;4591817;19;20469;-85
2023/10/09 08:13:57;;;;;;;13.60;9.55;;;19.20;88.80;;;;;;4592606;19;20007;-74
2023/10/09 08:15:51;;;;;;;14.18;9.70;;;19.20;88.50;;;;;;4592112;19;20050;-70
2023/10/09 08:17:28;;;;;;;15.55;8.77;;;19.20;88.60;;;;;;4592666;19;20005;-70
2023/10/09 08:19:23;;;;;;;10.57;7.28;;;19.20;88.80;;;;;;4593897;19;20017;-70
2023/10/09 08:22:43;;;;;;;11.10;6.93;;;19.20;88.70;;;;;;4594229;19;20035;-70
2023/10/09 08:24:55;;;;;;;10.45;6.68;;;19.20;88.90;;;;;;4594097;19;20013;-70
2023/10/09 08:26:28;;;;;;;11.63;6.85;;;19.20;89.00;;;;;;4593345;19;20010;-70
2023/10/09 08:30:28;;;;;;;11.15;6.57;;;19.20;88.90;;;;;;4593734;19;20010;-70
2023/10/09 08:31:56;;;;;;;11.00;6.65;;;19.20;89.30;;;;;;4592168;19;20006;-70
2023/10/09 08:33:41;;;;;;;9.45;6.93;;;19.20;89.40;;;;;;4593583;19;20446;-70
2023/10/09 08:35:29;;;;;;;12.48;6.40;;;19.20;89.20;;;;;;4593701;19;20291;-70
2023/10/09 08:37:04;;;;;;;70.10;9.43;;;19.20;89.60;;;;;;4593444;19;20006;-70
2023/10/09 08:38:41;;;;;;;9.98;6.40;;;19.20;90.00;;;;;;4593781;19;20007;-70
2023/10/09 08:40:20;;;;;;;10.48;6.85;;;19.20;90.20;;;;;;4593272;19;20066;-70
2023/10/09 08:41:57;;;;;;;10.85;6.50;;;19.20;90.20;;;;;;4592439;19;20003;-70
2023/10/09 08:43:32;;;;;;;10.43;6.32;;;19.20;90.30;;;;;;4593179;19;20010;-70
2023/10/09 08:45:07;;;;;;;11.57;7.22;;;19.20;90.30;;;;;;4592215;19;20010;-70
2023/10/09 08:46:45;;;;;;;8.50;6.07;;;19.20;90.30;;;;;;4591706;19;20010;-70
2023/10/09 08:48:22;;;;;;;11.45;7.15;;;19.20;90.40;;;;;;4593052;19;20006;-70
2023/10/09 08:49:57;;;;;;;11.70;7.45;;;19.20;90.50;;;;;;4593165;19;19999;-70
2023/10/09 08:51:32;;;;;;;12.23;7.70;;;19.20;90.40;;;;;;4592047;19;20011;-70
2023/10/09 08:53:08;;;;;;;13.77;8.25;;;19.20;90.50;;;;;;4592112;19;20007;-70
2023/10/09 08:54:44;;;;;;;13.30;9.43;;;19.20;90.70;;;;;;4591685;19;20043;-70
2023/10/09 08:56:23;;;;;;;12.25;8.70;;;19.20;90.60;;;;;;4591191;19;20020;-70
2023/10/09 08:57:58;;;;;;;15.57;9.52;;;19.20;90.40;;;;;;4591788;19;20007;-70
2023/10/09 08:59:33;;;;;;;13.52;8.80;;;19.20;90.70;;;;;;4592762;19;20002;-70
2023/10/09 09:01:11;;;;;;;14.35;8.52;;;19.20;90.80;;;;;;4592414;19;20414;-70
2023/10/09 09:02:48;;;;;;;12.43;9.32;;;19.20;90.70;;;;;;4593022;19;20003;-70
2023/10/09 09:04:41;;;;;;;12.55;8.52;;;19.20;90.70;;;;;;4591888;19;20038;-70
2023/10/09 09:06:15;;;;;;;13.55;8.88;;;19.10;91.00;;;;;;4592778;19;20002;-70
2023/10/09 09:07:56;;;;;;;16.40;9.48;;;19.10;91.00;;;;;;4592980;19;19999;-69
2023/10/09 09:09:31;;;;;;;18.70;12.15;;;19.10;90.80;;;;;;4592866;19;20010;-69
2023/10/09 09:11:15;;;;;;;18.60;12.07;;;19.10;90.90;;;;;;4592034;19;20041;-70
2023/10/09 09:13:03;;;;;;;15.73;10.93;;;19.10;90.80;;;;;;4592907;19;19998;-70
2023/10/09 09:14:37;;;;;;;16.92;10.27;;;19.10;90.90;;;;;;4592710;19;20013;-69
2023/10/09 09:16:20;;;;;;;17.60;9.90;;;19.10;91.10;;;;;;4590718;19;20324;-74
2023/10/09 09:18:17;;;;;;;16.20;8.95;;;19.10;91.40;;;;;;4591245;19;20426;-74
2023/10/09 09:19:51;;;;;;;17.75;10.88;;;19.10;91.20;;;;;;4591167;19;20006;-74
2023/10/09 09:21:27;;;;;;;17.42;8.77;;;19.10;91.00;;;;;;4591176;19;20006;-74
2023/10/09 09:23:04;;;;;;;19.40;10.07;;;19.10;91.20;;;;;;4591210;19;20343;-74
2023/10/09 09:24:38;;;;;;;15.63;9.18;;;19.10;91.30;;;;;;4592182;19;20070;-74
2023/10/09 09:26:12;;;;;;;16.20;9.65;;;19.00;91.10;;;;;;4591350;19;20064;-74
2023/10/09 09:28:09;;;;;;;14.05;8.63;;;19.10;91.10;;;;;;4591422;19;20014;-74
2023/10/09 09:29:52;;;;;;;13.65;9.25;;;19.00;90.90;;;;;;4592569;19;20070;-74
2023/10/09 09:31:26;;;;;;;13.50;9.35;;;19.00;90.80;;;;;;4591433;19;20011;-73
2023/10/09 09:33:26;;;;;;;12.63;8.35;;;19.00;90.70;;;;;;4592030;19;20007;-73
2023/10/09 09:35:01;;;;;;;9.43;5.43;;;19.00;90.80;;;;;;4591520;19;20003;-73
2023/10/09 09:36:35;;;;;;;9.43;5.07;;;19.00;90.40;;;;;;4589347;19;20006;-74
2023/10/09 09:38:17;;;;;;;10.23;5.97;;;19.00;90.00;;;;;;4589185;19;20017;-74
2023/10/09 09:39:51;;;;;;;9.25;5.45;;;19.00;90.30;;;;;;4587476;19;20003;-74
2023/10/09 09:41:25;;;;;;;7.68;5.60;;;19.00;90.00;;;;;;4587603;19;20402;-74
2023/10/09 09:43:21;;;;;;;8.40;4.82;;;19.00;89.40;;;;;;4588819;19;20006;-73
2023/10/09 09:44:57;;;;;;;9.77;5.28;;;19.00;88.80;;;;;;4587162;19;20353;-74
2023/10/09 09:46:34;;;;;;;7.78;4.68;;;19.00;89.20;;;;;;4587238;19;20006;-74
2023/10/09 09:48:10;;;;;;;8.60;5.00;;;19.00;89.00;;;;;;4588435;19;20009;-74
2023/10/09 09:49:44;;;;;;;8.57;5.80;;;19.00;89.50;;;;;;4588575;19;20034;-74
2023/10/09 09:51:20;;;;;;;13.00;4.25;;;19.00;88.80;;;;;;4588620;19;20552;-74
2023/10/09 09:52:56;;;;;;;7.53;4.22;;;19.00;88.90;;;;;;4591351;19;20002;-74
2023/10/09 09:54:33;;;;;;;8.05;5.30;;;19.00;89.10;;;;;;4590036;19;20374;-74
2023/10/09 09:56:08;;;;;;;8.40;4.75;;;19.00;89.10;;;;;;4590293;19;20010;-55
2023/10/09 09:57:51;;;;;;;8.45;4.55;;;19.00;88.70;;;;;;4589824;19;20318;-68
2023/10/09 09:59:27;;;;;;;;;;;18.90;88.40;;;;;;4591876;19;20434;-68
2023/10/09 10:01:15;;;;;;;6.82;4.07;;;19.00;88.50;;;;;;4590664;19;19922;-68
2023/10/09 10:02:50;;;;;;;7.43;4.63;;;19.00;88.90;;;;;;4589723;19;20007;-68
2023/10/09 10:04:27;;;;;;;8.55;4.47;;;19.00;89.20;;;;;;4590943;19;20402;-68
2023/10/09 10:06:05;;;;;;;7.82;4.47;;;19.00;88.60;;;;;;4589670;19;20030;-68
2023/10/09 10:07:43;;;;;;;7.28;4.22;;;19.00;88.80;;;;;;4590885;19;20320;-68
2023/10/09 10:09:39;;;;;;;7.68;4.65;;;19.00;88.80;;;;;;4591165;19;20011;-68
2023/10/09 10:11:45;;;;;;;7.03;4.30;;;19.00;89.40;;;;;;4590928;19;20340;-68
2023/10/09 10:13:41;;;;;;;9.73;6.50;;;19.00;90.00;;;;;;4590365;19;20002;-68
2023/10/09 10:15:16;;;;;;;8.98;6.13;;;16.60;90.10;;;;;;4596384;19;20007;-68
2023/10/09 10:17:20;;;;;;;18.02;10.45;;;15.60;91.40;;;;;;4596641;19;20070;-68
2023/10/09 10:18:59;;;;;;;10.38;6.10;;;15.10;92.70;;;;;;4596311;19;20010;-68
2023/10/09 10:20:34;;;;;;;8.23;5.63;;;14.80;93.80;;;;;;4595609;19;20301;-68
2023/10/09 10:22:40;;;;;;;9.98;6.05;;;14.70;94.10;;;;;;4594892;19;20431;-68